sensor_id;sensor_type;location;lat;lon;timestamp;P1;durP1;ratioP1;P2;durP2;ratioP2
553;SDS011;59;48.778;9.156;2022-10-31T00:00:44;8.23;;;6.03;;
553;SDS011;59;48.778;9.156;2022-10-31T00:03:10;11.03;;;6.23;;
553;SDS011;59;48.778;9.156;2022-10-31T00:05:36;13.93;;;7.17;;
553;SDS011;59;48.778;9.156;2022-10-31T00:08:05;12.00;;;6.43;;
553;SDS011;59;48.778;9.156;2022-10-31T00:10:31;10.50;;;7.30;;
553;SDS011;59;48.778;9.156;2022-10-31T00:12:57;13.83;;;7.20;;
553;SDS011;59;48.778;9.156;2022-10-31T00:15:22;10.40;;;7.30;;
553;SDS011;59;48.778;9.156;2022-10-31T00:17:48;11.80;;;7.07;;
553;SDS011;59;48.778;9.156;2022-10-31T00:20:13;13.67;;;7.10;;
553;SDS011;59;48.778;9.156;2022-10-31T00:22:39;12.07;;;7.47;;
553;SDS011;59;48.778;9.156;2022-10-31T00:25:05;11.00;;;7.43;;
553;SDS011;59;48.778;9.156;2022-10-31T00:27:31;10.47;;;6.33;;
553;SDS011;59;48.778;9.156;2022-10-31T00:29:56;10.13;;;6.57;;
553;SDS011;59;48.778;9.156;2022-10-31T00:32:22;11.50;;;6.87;;
553;SDS011;59;48.778;9.156;2022-10-31T00:34:47;11.50;;;7.17;;
553;SDS011;59;48.778;9.156;2022-10-31T00:37:13;11.93;;;6.90;;
553;SDS011;59;48.778;9.156;2022-10-31T00:39:39;11.20;;;6.73;;
553;SDS011;59;48.778;9.156;2022-10-31T00:42:04;12.93;;;7.47;;
553;SDS011;59;48.778;9.156;2022-10-31T00:44:30;12.07;;;7.00;;
553;SDS011;59;48.778;9.156;2022-10-31T00:46:55;12.90;;;7.20;;
553;SDS011;59;48.778;9.156;2022-10-31T00:49:21;13.13;;;7.50;;
553;SDS011;59;48.778;9.156;2022-10-31T00:51:47;11.33;;;6.77;;
553;SDS011;59;48.778;9.156;2022-10-31T00:54:13;10.70;;;6.73;;
553;SDS011;59;48.778;9.156;2022-10-31T00:56:38;12.90;;;6.70;;
553;SDS011;59;48.778;9.156;2022-10-31T00:59:04;9.53;;;6.57;;
553;SDS011;59;48.778;9.156;2022-10-31T01:01:29;10.10;;;6.50;;
553;SDS011;59;48.778;9.156;2022-10-31T01:03:55;11.00;;;6.53;;
553;SDS011;59;48.778;9.156;2022-10-31T01:06:22;10.70;;;6.60;;
553;SDS011;59;48.778;9.156;2022-10-31T01:08:48;13.97;;;6.33;;
553;SDS011;59;48.778;9.156;2022-10-31T01:11:14;9.93;;;5.90;;
553;SDS011;59;48.778;9.156;2022-10-31T01:13:42;8.27;;;5.67;;
553;SDS011;59;48.778;9.156;2022-10-31T01:16:09;9.77;;;6.07;;
553;SDS011;59;48.778;9.156;2022-10-31T01:18:36;9.87;;;6.37;;
553;SDS011;59;48.778;9.156;2022-10-31T01:23:32;10.30;;;6.30;;
553;SDS011;59;48.778;9.156;2022-10-31T01:26:08;11.40;;;6.47;;
553;SDS011;59;48.778;9.156;2022-10-31T01:28:46;9.23;;;6.50;;
553;SDS011;59;48.778;9.156;2022-10-31T01:31:15;11.70;;;6.67;;
553;SDS011;59;48.778;9.156;2022-10-31T01:33:42;11.83;;;6.70;;
553;SDS011;59;48.778;9.156;2022-10-31T01:36:18;9.53;;;6.40;;
553;SDS011;59;48.778;9.156;2022-10-31T01:38:51;10.50;;;6.60;;
553;SDS011;59;48.778;9.156;2022-10-31T01:41:19;12.77;;;7.00;;
553;SDS011;59;48.778;9.156;2022-10-31T01:43:51;9.97;;;6.43;;
553;SDS011;59;48.778;9.156;2022-10-31T01:46:35;12.20;;;7.17;;
553;SDS011;59;48.778;9.156;2022-10-31T01:49:03;9.80;;;6.30;;
553;SDS011;59;48.778;9.156;2022-10-31T01:51:33;9.80;;;6.63;;
553;SDS011;59;48.778;9.156;2022-10-31T01:54:04;10.10;;;6.50;;
553;SDS011;59;48.778;9.156;2022-10-31T01:56:32;10.37;;;6.30;;
553;SDS011;59;48.778;9.156;2022-10-31T01:59:00;9.67;;;6.73;;
553;SDS011;59;48.778;9.156;2022-10-31T02:01:27;11.53;;;7.37;;
553;SDS011;59;48.778;9.156;2022-10-31T02:03:53;12.30;;;6.77;;
553;SDS011;59;48.778;9.156;2022-10-31T02:06:55;10.43;;;6.40;;
553;SDS011;59;48.778;9.156;2022-10-31T02:09:16;8.47;;;6.23;;
553;SDS011;59;48.778;9.156;2022-10-31T02:11:42;9.23;;;6.47;;
553;SDS011;59;48.778;9.156;2022-10-31T02:14:09;8.93;;;6.07;;
553;SDS011;59;48.778;9.156;2022-10-31T02:16:35;9.60;;;6.10;;
553;SDS011;59;48.778;9.156;2022-10-31T02:19:00;8.10;;;6.27;;
553;SDS011;59;48.778;9.156;2022-10-31T02:35:23;12.53;;;5.97;;
553;SDS011;59;48.778;9.156;2022-10-31T02:40:35;9.13;;;6.03;;
553;SDS011;59;48.778;9.156;2022-10-31T02:43:17;11.37;;;6.73;;
553;SDS011;59;48.778;9.156;2022-10-31T02:46:05;11.90;;;7.03;;
553;SDS011;59;48.778;9.156;2022-10-31T02:48:37;9.23;;;6.83;;
553;SDS011;59;48.778;9.156;2022-10-31T02:51:04;8.07;;;6.23;;
553;SDS011;59;48.778;9.156;2022-10-31T02:53:33;10.00;;;5.87;;
553;SDS011;59;48.778;9.156;2022-10-31T02:58:31;9.77;;;5.87;;
553;SDS011;59;48.778;9.156;2022-10-31T03:03:53;10.13;;;6.63;;
553;SDS011;59;48.778;9.156;2022-10-31T03:09:24;11.97;;;6.60;;
553;SDS011;59;48.778;9.156;2022-10-31T03:14:52;8.53;;;6.10;;
553;SDS011;59;48.778;9.156;2022-10-31T03:17:27;8.90;;;6.40;;
553;SDS011;59;48.778;9.156;2022-10-31T03:20:02;11.03;;;6.53;;
553;SDS011;59;48.778;9.156;2022-10-31T03:22:30;13.43;;;7.23;;
553;SDS011;59;48.778;9.156;2022-10-31T03:24:56;10.30;;;6.13;;
553;SDS011;59;48.778;9.156;2022-10-31T03:27:24;9.80;;;5.70;;
553;SDS011;59;48.778;9.156;2022-10-31T03:29:51;9.30;;;6.50;;
553;SDS011;59;48.778;9.156;2022-10-31T03:32:24;9.80;;;6.27;;
553;SDS011;59;48.778;9.156;2022-10-31T03:34:56;10.73;;;6.37;;
553;SDS011;59;48.778;9.156;2022-10-31T03:37:23;10.37;;;6.77;;
553;SDS011;59;48.778;9.156;2022-10-31T03:39:50;10.30;;;5.90;;
553;SDS011;59;48.778;9.156;2022-10-31T03:45:14;10.80;;;7.07;;
553;SDS011;59;48.778;9.156;2022-10-31T03:47:40;10.77;;;6.87;;
553;SDS011;59;48.778;9.156;2022-10-31T03:50:07;12.50;;;6.73;;
553;SDS011;59;48.778;9.156;2022-10-31T03:55:09;10.97;;;6.07;;
553;SDS011;59;48.778;9.156;2022-10-31T04:00:18;11.30;;;6.63;;
553;SDS011;59;48.778;9.156;2022-10-31T04:02:55;8.07;;;5.90;;
553;SDS011;59;48.778;9.156;2022-10-31T04:05:31;10.33;;;6.30;;
553;SDS011;59;48.778;9.156;2022-10-31T04:07:57;11.27;;;6.27;;
553;SDS011;59;48.778;9.156;2022-10-31T04:10:23;9.67;;;6.57;;
553;SDS011;59;48.778;9.156;2022-10-31T04:12:52;7.73;;;5.77;;
553;SDS011;59;48.778;9.156;2022-10-31T04:15:26;11.80;;;6.33;;
553;SDS011;59;48.778;9.156;2022-10-31T04:17:53;9.70;;;6.27;;
553;SDS011;59;48.778;9.156;2022-10-31T04:20:37;11.67;;;6.57;;
553;SDS011;59;48.778;9.156;2022-10-31T04:23:05;8.90;;;5.93;;
553;SDS011;59;48.778;9.156;2022-10-31T04:25:35;8.53;;;5.60;;
553;SDS011;59;48.778;9.156;2022-10-31T04:28:01;10.37;;;6.83;;
553;SDS011;59;48.778;9.156;2022-10-31T04:30:27;12.73;;;6.17;;
553;SDS011;59;48.778;9.156;2022-10-31T04:32:52;8.57;;;6.00;;
553;SDS011;59;48.778;9.156;2022-10-31T04:35:18;10.70;;;6.30;;
553;SDS011;59;48.778;9.156;2022-10-31T04:37:43;12.30;;;6.50;;
553;SDS011;59;48.778;9.156;2022-10-31T04:40:09;8.87;;;5.90;;
553;SDS011;59;48.778;9.156;2022-10-31T04:42:35;9.80;;;6.33;;
553;SDS011;59;48.778;9.156;2022-10-31T04:45:01;10.80;;;6.70;;
553;SDS011;59;48.778;9.156;2022-10-31T04:47:27;9.93;;;6.70;;
553;SDS011;59;48.778;9.156;2022-10-31T04:49:55;9.17;;;5.63;;
553;SDS011;59;48.778;9.156;2022-10-31T04:52:21;12.53;;;6.60;;
553;SDS011;59;48.778;9.156;2022-10-31T04:54:46;11.87;;;6.90;;
553;SDS011;59;48.778;9.156;2022-10-31T04:57:12;8.90;;;6.30;;
553;SDS011;59;48.778;9.156;2022-10-31T04:59:37;9.33;;;5.97;;
553;SDS011;59;48.778;9.156;2022-10-31T05:02:03;8.67;;;5.70;;
553;SDS011;59;48.778;9.156;2022-10-31T05:04:29;12.47;;;5.93;;
553;SDS011;59;48.778;9.156;2022-10-31T05:06:54;10.40;;;6.90;;
553;SDS011;59;48.778;9.156;2022-10-31T05:09:20;8.77;;;6.10;;
553;SDS011;59;48.778;9.156;2022-10-31T05:11:46;13.00;;;6.37;;
553;SDS011;59;48.778;9.156;2022-10-31T05:14:11;11.97;;;6.07;;
553;SDS011;59;48.778;9.156;2022-10-31T05:16:37;9.30;;;6.40;;
553;SDS011;59;48.778;9.156;2022-10-31T05:19:02;8.90;;;6.20;;
553;SDS011;59;48.778;9.156;2022-10-31T05:21:28;16.87;;;7.10;;
553;SDS011;59;48.778;9.156;2022-10-31T05:23:54;8.60;;;5.50;;
553;SDS011;59;48.778;9.156;2022-10-31T05:26:19;10.80;;;6.23;;
553;SDS011;59;48.778;9.156;2022-10-31T05:28:45;10.20;;;5.50;;
553;SDS011;59;48.778;9.156;2022-10-31T05:31:10;8.53;;;5.77;;
553;SDS011;59;48.778;9.156;2022-10-31T05:33:36;8.03;;;6.10;;
553;SDS011;59;48.778;9.156;2022-10-31T05:36:02;9.40;;;6.23;;
553;SDS011;59;48.778;9.156;2022-10-31T05:38:28;9.40;;;6.20;;
553;SDS011;59;48.778;9.156;2022-10-31T05:40:54;13.10;;;6.60;;
553;SDS011;59;48.778;9.156;2022-10-31T05:43:22;9.80;;;5.90;;
553;SDS011;59;48.778;9.156;2022-10-31T05:48:16;11.13;;;6.37;;
553;SDS011;59;48.778;9.156;2022-10-31T05:50:42;9.40;;;6.17;;
553;SDS011;59;48.778;9.156;2022-10-31T05:53:08;9.97;;;6.00;;
553;SDS011;59;48.778;9.156;2022-10-31T05:55:33;9.23;;;6.00;;
553;SDS011;59;48.778;9.156;2022-10-31T05:57:59;9.17;;;6.50;;
553;SDS011;59;48.778;9.156;2022-10-31T06:00:25;10.60;;;6.67;;
553;SDS011;59;48.778;9.156;2022-10-31T06:03:02;10.20;;;7.13;;
553;SDS011;59;48.778;9.156;2022-10-31T06:05:29;9.57;;;6.77;;
553;SDS011;59;48.778;9.156;2022-10-31T06:07:56;9.53;;;6.30;;
553;SDS011;59;48.778;9.156;2022-10-31T06:10:21;9.30;;;6.40;;
553;SDS011;59;48.778;9.156;2022-10-31T06:12:48;9.50;;;6.20;;
553;SDS011;59;48.778;9.156;2022-10-31T06:15:13;10.40;;;6.87;;
553;SDS011;59;48.778;9.156;2022-10-31T06:17:39;8.80;;;6.30;;
553;SDS011;59;48.778;9.156;2022-10-31T06:20:05;12.30;;;6.80;;
553;SDS011;59;48.778;9.156;2022-10-31T06:22:31;10.20;;;6.23;;
553;SDS011;59;48.778;9.156;2022-10-31T06:24:57;9.57;;;6.63;;
553;SDS011;59;48.778;9.156;2022-10-31T06:27:23;10.23;;;6.00;;
553;SDS011;59;48.778;9.156;2022-10-31T06:29:49;13.67;;;6.83;;
553;SDS011;59;48.778;9.156;2022-10-31T06:32:15;9.17;;;6.80;;
553;SDS011;59;48.778;9.156;2022-10-31T06:34:41;9.47;;;6.40;;
553;SDS011;59;48.778;9.156;2022-10-31T06:37:11;9.10;;;6.47;;
553;SDS011;59;48.778;9.156;2022-10-31T06:39:37;9.10;;;5.70;;
553;SDS011;59;48.778;9.156;2022-10-31T06:42:02;9.83;;;5.90;;
553;SDS011;59;48.778;9.156;2022-10-31T06:44:28;10.50;;;6.60;;
553;SDS011;59;48.778;9.156;2022-10-31T06:46:54;10.60;;;5.97;;
553;SDS011;59;48.778;9.156;2022-10-31T06:49:20;11.20;;;6.83;;
553;SDS011;59;48.778;9.156;2022-10-31T06:51:49;10.53;;;6.33;;
553;SDS011;59;48.778;9.156;2022-10-31T06:54:15;12.57;;;6.60;;
553;SDS011;59;48.778;9.156;2022-10-31T06:56:41;10.10;;;6.40;;
553;SDS011;59;48.778;9.156;2022-10-31T06:59:07;10.80;;;6.53;;
553;SDS011;59;48.778;9.156;2022-10-31T07:01:32;11.17;;;6.87;;
553;SDS011;59;48.778;9.156;2022-10-31T07:03:58;16.60;;;7.00;;
553;SDS011;59;48.778;9.156;2022-10-31T07:06:24;11.07;;;6.80;;
553;SDS011;59;48.778;9.156;2022-10-31T07:08:49;9.27;;;6.17;;
553;SDS011;59;48.778;9.156;2022-10-31T07:11:15;13.57;;;7.23;;
553;SDS011;59;48.778;9.156;2022-10-31T07:13:41;10.97;;;6.10;;
553;SDS011;59;48.778;9.156;2022-10-31T07:16:07;12.83;;;6.20;;
553;SDS011;59;48.778;9.156;2022-10-31T07:18:33;11.43;;;6.63;;
553;SDS011;59;48.778;9.156;2022-10-31T07:20:59;9.50;;;6.60;;
553;SDS011;59;48.778;9.156;2022-10-31T07:23:24;10.10;;;6.47;;
553;SDS011;59;48.778;9.156;2022-10-31T07:25:56;14.03;;;6.90;;
553;SDS011;59;48.778;9.156;2022-10-31T07:28:23;11.57;;;6.83;;
553;SDS011;59;48.778;9.156;2022-10-31T07:30:52;13.07;;;8.23;;
553;SDS011;59;48.778;9.156;2022-10-31T07:33:19;21.50;;;14.23;;
553;SDS011;59;48.778;9.156;2022-10-31T07:35:45;16.20;;;10.07;;
553;SDS011;59;48.778;9.156;2022-10-31T07:38:12;13.30;;;8.87;;
553;SDS011;59;48.778;9.156;2022-10-31T07:40:39;14.07;;;8.43;;
553;SDS011;59;48.778;9.156;2022-10-31T07:43:05;13.30;;;7.97;;
553;SDS011;59;48.778;9.156;2022-10-31T07:45:31;10.63;;;6.90;;
553;SDS011;59;48.778;9.156;2022-10-31T07:47:57;9.23;;;6.40;;
553;SDS011;59;48.778;9.156;2022-10-31T07:50:24;10.70;;;6.80;;
553;SDS011;59;48.778;9.156;2022-10-31T07:53:00;10.00;;;6.77;;
553;SDS011;59;48.778;9.156;2022-10-31T07:55:30;10.10;;;7.10;;
553;SDS011;59;48.778;9.156;2022-10-31T07:57:59;9.07;;;6.70;;
553;SDS011;59;48.778;9.156;2022-10-31T08:00:28;9.67;;;6.27;;
553;SDS011;59;48.778;9.156;2022-10-31T08:02:58;11.20;;;6.93;;
553;SDS011;59;48.778;9.156;2022-10-31T08:05:24;11.73;;;6.83;;
553;SDS011;59;48.778;9.156;2022-10-31T08:07:49;9.57;;;6.40;;
553;SDS011;59;48.778;9.156;2022-10-31T08:10:15;10.50;;;7.17;;
553;SDS011;59;48.778;9.156;2022-10-31T08:12:41;12.27;;;7.80;;
553;SDS011;59;48.778;9.156;2022-10-31T08:15:06;11.93;;;8.87;;
553;SDS011;59;48.778;9.156;2022-10-31T08:17:36;12.30;;;7.60;;
553;SDS011;59;48.778;9.156;2022-10-31T08:20:02;14.00;;;7.40;;
553;SDS011;59;48.778;9.156;2022-10-31T08:22:29;12.70;;;7.07;;
553;SDS011;59;48.778;9.156;2022-10-31T08:24:54;18.20;;;10.50;;
553;SDS011;59;48.778;9.156;2022-10-31T08:27:20;17.80;;;12.60;;
553;SDS011;59;48.778;9.156;2022-10-31T08:29:46;15.90;;;10.70;;
553;SDS011;59;48.778;9.156;2022-10-31T08:32:12;13.50;;;9.37;;
553;SDS011;59;48.778;9.156;2022-10-31T08:34:37;13.40;;;8.03;;
553;SDS011;59;48.778;9.156;2022-10-31T08:37:03;11.27;;;7.40;;
553;SDS011;59;48.778;9.156;2022-10-31T08:39:29;11.40;;;7.90;;
553;SDS011;59;48.778;9.156;2022-10-31T08:41:54;16.63;;;7.77;;
553;SDS011;59;48.778;9.156;2022-10-31T08:44:20;10.70;;;7.10;;
553;SDS011;59;48.778;9.156;2022-10-31T08:46:46;10.70;;;7.33;;
553;SDS011;59;48.778;9.156;2022-10-31T08:49:12;9.53;;;6.57;;
553;SDS011;59;48.778;9.156;2022-10-31T08:51:38;8.73;;;6.40;;
553;SDS011;59;48.778;9.156;2022-10-31T08:54:03;11.20;;;6.87;;
553;SDS011;59;48.778;9.156;2022-10-31T08:56:29;9.23;;;6.40;;
553;SDS011;59;48.778;9.156;2022-10-31T08:58:55;8.43;;;6.63;;
553;SDS011;59;48.778;9.156;2022-10-31T09:01:20;10.10;;;6.90;;
553;SDS011;59;48.778;9.156;2022-10-31T09:03:46;8.97;;;6.13;;
553;SDS011;59;48.778;9.156;2022-10-31T09:06:12;10.47;;;6.60;;
553;SDS011;59;48.778;9.156;2022-10-31T09:08:37;8.90;;;6.23;;
553;SDS011;59;48.778;9.156;2022-10-31T09:11:03;11.00;;;7.07;;
553;SDS011;59;48.778;9.156;2022-10-31T09:13:30;10.70;;;7.40;;
553;SDS011;59;48.778;9.156;2022-10-31T09:15:56;31.20;;;20.27;;
553;SDS011;59;48.778;9.156;2022-10-31T09:18:23;42.13;;;26.20;;
553;SDS011;59;48.778;9.156;2022-10-31T09:20:49;30.50;;;18.00;;
553;SDS011;59;48.778;9.156;2022-10-31T09:23:16;26.13;;;16.67;;
553;SDS011;59;48.778;9.156;2022-10-31T09:25:43;20.77;;;14.20;;
553;SDS011;59;48.778;9.156;2022-10-31T09:28:14;16.93;;;11.40;;
553;SDS011;59;48.778;9.156;2022-10-31T09:30:40;17.33;;;10.60;;
553;SDS011;59;48.778;9.156;2022-10-31T09:33:08;14.20;;;8.80;;
553;SDS011;59;48.778;9.156;2022-10-31T09:35:35;12.70;;;8.63;;
553;SDS011;59;48.778;9.156;2022-10-31T09:38:02;11.20;;;7.90;;
553;SDS011;59;48.778;9.156;2022-10-31T09:40:36;12.20;;;7.87;;
553;SDS011;59;48.778;9.156;2022-10-31T09:45:56;13.07;;;7.00;;
553;SDS011;59;48.778;9.156;2022-10-31T09:51:31;11.13;;;7.07;;
553;SDS011;59;48.778;9.156;2022-10-31T09:54:05;13.77;;;7.70;;
553;SDS011;59;48.778;9.156;2022-10-31T09:56:35;8.83;;;6.80;;
553;SDS011;59;48.778;9.156;2022-10-31T09:59:02;9.53;;;6.57;;
553;SDS011;59;48.778;9.156;2022-10-31T10:01:46;9.50;;;6.23;;
553;SDS011;59;48.778;9.156;2022-10-31T10:16:09;12.27;;;7.20;;
553;SDS011;59;48.778;9.156;2022-10-31T10:22:03;11.23;;;6.60;;
553;SDS011;59;48.778;9.156;2022-10-31T10:26:40;8.53;;;6.40;;
553;SDS011;59;48.778;9.156;2022-10-31T10:31:53;7.83;;;5.70;;
553;SDS011;59;48.778;9.156;2022-10-31T10:34:20;8.80;;;5.93;;
553;SDS011;59;48.778;9.156;2022-10-31T10:36:54;8.10;;;5.53;;
553;SDS011;59;48.778;9.156;2022-10-31T10:41:50;7.33;;;6.70;;
553;SDS011;59;48.778;9.156;2022-10-31T10:44:37;7.77;;;5.80;;
553;SDS011;59;48.778;9.156;2022-10-31T10:47:23;7.97;;;5.93;;
553;SDS011;59;48.778;9.156;2022-10-31T10:50:17;10.13;;;7.07;;
553;SDS011;59;48.778;9.156;2022-10-31T10:55:32;10.90;;;6.10;;
553;SDS011;59;48.778;9.156;2022-10-31T10:58:03;7.80;;;5.43;;
553;SDS011;59;48.778;9.156;2022-10-31T11:00:38;9.73;;;6.37;;
553;SDS011;59;48.778;9.156;2022-10-31T11:03:11;10.00;;;6.23;;
553;SDS011;59;48.778;9.156;2022-10-31T11:05:54;9.77;;;6.00;;
553;SDS011;59;48.778;9.156;2022-10-31T11:08:29;11.70;;;6.60;;
553;SDS011;59;48.778;9.156;2022-10-31T11:10:57;8.03;;;5.73;;
553;SDS011;59;48.778;9.156;2022-10-31T11:13:27;9.60;;;6.10;;
553;SDS011;59;48.778;9.156;2022-10-31T11:16:01;8.33;;;5.90;;
553;SDS011;59;48.778;9.156;2022-10-31T11:18:30;9.80;;;5.80;;
553;SDS011;59;48.778;9.156;2022-10-31T11:20:58;8.37;;;6.37;;
553;SDS011;59;48.778;9.156;2022-10-31T11:23:26;9.03;;;5.70;;
553;SDS011;59;48.778;9.156;2022-10-31T11:25:57;9.90;;;5.93;;
553;SDS011;59;48.778;9.156;2022-10-31T11:28:25;12.40;;;6.10;;
553;SDS011;59;48.778;9.156;2022-10-31T11:30:55;11.63;;;6.13;;
553;SDS011;59;48.778;9.156;2022-10-31T11:36:00;9.40;;;5.67;;
553;SDS011;59;48.778;9.156;2022-10-31T11:38:33;7.53;;;6.00;;
553;SDS011;59;48.778;9.156;2022-10-31T11:43:40;9.17;;;5.73;;
553;SDS011;59;48.778;9.156;2022-10-31T11:46:34;13.90;;;6.60;;
553;SDS011;59;48.778;9.156;2022-10-31T11:49:05;8.70;;;6.10;;
553;SDS011;59;48.778;9.156;2022-10-31T11:51:38;9.10;;;5.37;;
553;SDS011;59;48.778;9.156;2022-10-31T11:54:05;8.80;;;5.30;;
553;SDS011;59;48.778;9.156;2022-10-31T11:56:38;8.50;;;5.33;;
553;SDS011;59;48.778;9.156;2022-10-31T11:59:26;7.40;;;5.07;;
553;SDS011;59;48.778;9.156;2022-10-31T12:01:54;8.70;;;5.00;;
553;SDS011;59;48.778;9.156;2022-10-31T12:04:23;8.53;;;5.60;;
553;SDS011;59;48.778;9.156;2022-10-31T12:07:01;8.60;;;5.47;;
553;SDS011;59;48.778;9.156;2022-10-31T12:09:28;8.80;;;5.40;;
553;SDS011;59;48.778;9.156;2022-10-31T12:17:41;5.47;;;4.43;;
553;SDS011;59;48.778;9.156;2022-10-31T12:20:38;14.13;;;8.23;;
553;SDS011;59;48.778;9.156;2022-10-31T12:58:59;7.93;;;6.47;;
553;SDS011;59;48.778;9.156;2022-10-31T13:06:53;8.43;;;6.27;;
553;SDS011;59;48.778;9.156;2022-10-31T13:09:28;8.30;;;5.90;;
553;SDS011;59;48.778;9.156;2022-10-31T13:12:04;8.20;;;5.77;;
553;SDS011;59;48.778;9.156;2022-10-31T13:14:53;9.63;;;6.67;;
553;SDS011;59;48.778;9.156;2022-10-31T13:23:05;8.37;;;6.23;;
553;SDS011;59;48.778;9.156;2022-10-31T13:25:36;10.30;;;6.40;;
553;SDS011;59;48.778;9.156;2022-10-31T13:28:12;6.50;;;5.20;;
553;SDS011;59;48.778;9.156;2022-10-31T13:31:07;6.73;;;5.27;;
553;SDS011;59;48.778;9.156;2022-10-31T13:33:38;5.27;;;4.77;;
553;SDS011;59;48.778;9.156;2022-10-31T13:36:31;9.90;;;5.27;;
553;SDS011;59;48.778;9.156;2022-10-31T13:42:08;7.50;;;5.23;;
553;SDS011;59;48.778;9.156;2022-10-31T13:44:37;7.40;;;5.03;;
553;SDS011;59;48.778;9.156;2022-10-31T13:47:03;8.40;;;5.63;;
553;SDS011;59;48.778;9.156;2022-10-31T13:54:34;11.97;;;7.70;;
553;SDS011;59;48.778;9.156;2022-10-31T13:57:02;12.40;;;7.80;;
553;SDS011;59;48.778;9.156;2022-10-31T13:59:31;11.63;;;7.93;;
553;SDS011;59;48.778;9.156;2022-10-31T14:02:00;12.10;;;7.27;;
553;SDS011;59;48.778;9.156;2022-10-31T14:04:28;10.63;;;6.90;;
553;SDS011;59;48.778;9.156;2022-10-31T14:07:09;8.80;;;6.67;;
553;SDS011;59;48.778;9.156;2022-10-31T14:09:48;8.70;;;6.33;;
553;SDS011;59;48.778;9.156;2022-10-31T14:12:35;8.03;;;6.47;;
553;SDS011;59;48.778;9.156;2022-10-31T14:15:17;8.73;;;6.47;;
553;SDS011;59;48.778;9.156;2022-10-31T14:22:41;7.83;;;5.37;;
553;SDS011;59;48.778;9.156;2022-10-31T14:28:01;6.90;;;5.27;;
553;SDS011;59;48.778;9.156;2022-10-31T14:30:29;8.73;;;6.40;;
553;SDS011;59;48.778;9.156;2022-10-31T14:32:58;9.07;;;6.80;;
553;SDS011;59;48.778;9.156;2022-10-31T14:36:04;9.17;;;6.77;;
553;SDS011;59;48.778;9.156;2022-10-31T14:47:02;10.23;;;6.10;;
553;SDS011;59;48.778;9.156;2022-10-31T14:52:34;6.87;;;5.20;;
553;SDS011;59;48.778;9.156;2022-10-31T14:55:01;8.13;;;6.10;;
553;SDS011;59;48.778;9.156;2022-10-31T14:57:32;7.73;;;5.67;;
553;SDS011;59;48.778;9.156;2022-10-31T15:00:04;6.93;;;5.20;;
553;SDS011;59;48.778;9.156;2022-10-31T15:02:57;6.10;;;4.70;;
553;SDS011;59;48.778;9.156;2022-10-31T15:05:32;7.17;;;5.37;;
553;SDS011;59;48.778;9.156;2022-10-31T15:08:00;6.57;;;5.10;;
553;SDS011;59;48.778;9.156;2022-10-31T15:10:38;7.80;;;5.27;;
553;SDS011;59;48.778;9.156;2022-10-31T15:13:15;7.00;;;4.93;;
553;SDS011;59;48.778;9.156;2022-10-31T15:15:44;8.10;;;5.20;;
553;SDS011;59;48.778;9.156;2022-10-31T15:18:15;5.50;;;4.37;;
553;SDS011;59;48.778;9.156;2022-10-31T15:20:45;7.40;;;4.60;;
553;SDS011;59;48.778;9.156;2022-10-31T15:23:11;5.40;;;4.30;;
553;SDS011;59;48.778;9.156;2022-10-31T15:25:41;8.93;;;4.63;;
553;SDS011;59;48.778;9.156;2022-10-31T15:28:14;6.70;;;4.73;;
553;SDS011;59;48.778;9.156;2022-10-31T15:30:48;6.70;;;4.97;;
553;SDS011;59;48.778;9.156;2022-10-31T15:33:20;6.07;;;4.47;;
553;SDS011;59;48.778;9.156;2022-10-31T15:36:02;6.87;;;4.93;;
553;SDS011;59;48.778;9.156;2022-10-31T15:38:28;5.67;;;4.70;;
553;SDS011;59;48.778;9.156;2022-10-31T15:40:57;8.07;;;5.33;;
553;SDS011;59;48.778;9.156;2022-10-31T15:43:24;8.97;;;6.00;;
553;SDS011;59;48.778;9.156;2022-10-31T15:45:50;9.20;;;7.33;;
553;SDS011;59;48.778;9.156;2022-10-31T15:48:18;10.20;;;7.73;;
553;SDS011;59;48.778;9.156;2022-10-31T15:50:48;10.40;;;7.17;;
553;SDS011;59;48.778;9.156;2022-10-31T15:53:26;10.57;;;7.10;;
553;SDS011;59;48.778;9.156;2022-10-31T15:55:55;8.10;;;6.03;;
553;SDS011;59;48.778;9.156;2022-10-31T15:58:24;9.93;;;7.10;;
553;SDS011;59;48.778;9.156;2022-10-31T16:01:01;10.00;;;7.07;;
553;SDS011;59;48.778;9.156;2022-10-31T16:03:31;8.67;;;6.43;;
553;SDS011;59;48.778;9.156;2022-10-31T16:05:59;11.50;;;6.93;;
553;SDS011;59;48.778;9.156;2022-10-31T16:10:58;9.13;;;6.80;;
553;SDS011;59;48.778;9.156;2022-10-31T16:13:39;11.67;;;8.10;;
553;SDS011;59;48.778;9.156;2022-10-31T16:16:22;13.60;;;7.53;;
553;SDS011;59;48.778;9.156;2022-10-31T16:18:48;12.47;;;7.63;;
553;SDS011;59;48.778;9.156;2022-10-31T16:21:15;10.43;;;7.37;;
553;SDS011;59;48.778;9.156;2022-10-31T16:23:53;11.07;;;7.47;;
553;SDS011;59;48.778;9.156;2022-10-31T16:26:29;10.17;;;7.17;;
553;SDS011;59;48.778;9.156;2022-10-31T16:28:56;12.17;;;7.83;;
553;SDS011;59;48.778;9.156;2022-10-31T16:31:56;10.50;;;7.67;;
553;SDS011;59;48.778;9.156;2022-10-31T16:34:16;11.37;;;7.73;;
553;SDS011;59;48.778;9.156;2022-10-31T16:36:44;12.50;;;8.20;;
553;SDS011;59;48.778;9.156;2022-10-31T16:39:10;14.00;;;8.70;;
553;SDS011;59;48.778;9.156;2022-10-31T16:41:46;14.53;;;9.27;;
553;SDS011;59;48.778;9.156;2022-10-31T16:44:23;14.30;;;9.37;;
553;SDS011;59;48.778;9.156;2022-10-31T16:49:33;14.77;;;8.90;;
553;SDS011;59;48.778;9.156;2022-10-31T16:51:58;15.07;;;9.00;;
553;SDS011;59;48.778;9.156;2022-10-31T16:54:24;13.93;;;9.37;;
553;SDS011;59;48.778;9.156;2022-10-31T16:56:49;15.00;;;9.70;;
553;SDS011;59;48.778;9.156;2022-10-31T16:59:15;13.57;;;10.00;;
553;SDS011;59;48.778;9.156;2022-10-31T17:01:41;16.87;;;10.27;;
553;SDS011;59;48.778;9.156;2022-10-31T17:04:11;16.77;;;9.43;;
553;SDS011;59;48.778;9.156;2022-10-31T17:06:38;13.17;;;9.30;;
553;SDS011;59;48.778;9.156;2022-10-31T17:09:04;17.87;;;10.20;;
553;SDS011;59;48.778;9.156;2022-10-31T17:11:30;15.17;;;10.20;;
553;SDS011;59;48.778;9.156;2022-10-31T17:13:55;15.83;;;10.67;;
553;SDS011;59;48.778;9.156;2022-10-31T17:16:21;16.00;;;10.60;;
553;SDS011;59;48.778;9.156;2022-10-31T17:18:47;20.97;;;11.30;;
553;SDS011;59;48.778;9.156;2022-10-31T17:21:17;21.63;;;11.80;;
553;SDS011;59;48.778;9.156;2022-10-31T17:23:47;17.30;;;12.03;;
553;SDS011;59;48.778;9.156;2022-10-31T17:26:13;20.20;;;13.83;;
553;SDS011;59;48.778;9.156;2022-10-31T17:28:38;26.73;;;16.53;;
553;SDS011;59;48.778;9.156;2022-10-31T17:31:04;25.80;;;14.60;;
553;SDS011;59;48.778;9.156;2022-10-31T17:33:30;20.43;;;13.20;;
553;SDS011;59;48.778;9.156;2022-10-31T17:35:55;19.63;;;12.80;;
553;SDS011;59;48.778;9.156;2022-10-31T17:38:21;18.70;;;12.60;;
553;SDS011;59;48.778;9.156;2022-10-31T17:40:47;18.83;;;13.27;;
553;SDS011;59;48.778;9.156;2022-10-31T17:43:13;19.50;;;12.07;;
553;SDS011;59;48.778;9.156;2022-10-31T17:45:39;17.93;;;12.53;;
553;SDS011;59;48.778;9.156;2022-10-31T17:48:05;21.10;;;12.33;;
553;SDS011;59;48.778;9.156;2022-10-31T17:50:32;19.50;;;11.87;;
553;SDS011;59;48.778;9.156;2022-10-31T17:52:57;22.73;;;12.40;;
553;SDS011;59;48.778;9.156;2022-10-31T17:55:23;17.97;;;13.43;;
553;SDS011;59;48.778;9.156;2022-10-31T17:57:49;24.67;;;16.57;;
553;SDS011;59;48.778;9.156;2022-10-31T18:00:16;19.87;;;12.60;;
553;SDS011;59;48.778;9.156;2022-10-31T18:02:44;20.70;;;13.93;;
553;SDS011;59;48.778;9.156;2022-10-31T18:05:10;17.07;;;12.27;;
553;SDS011;59;48.778;9.156;2022-10-31T18:07:36;15.97;;;11.50;;
553;SDS011;59;48.778;9.156;2022-10-31T18:10:02;16.47;;;11.60;;
553;SDS011;59;48.778;9.156;2022-10-31T18:12:28;19.00;;;11.33;;
553;SDS011;59;48.778;9.156;2022-10-31T18:14:56;20.40;;;12.47;;
553;SDS011;59;48.778;9.156;2022-10-31T18:17:22;16.93;;;12.73;;
553;SDS011;59;48.778;9.156;2022-10-31T18:19:48;18.93;;;13.10;;
553;SDS011;59;48.778;9.156;2022-10-31T18:22:13;19.90;;;13.53;;
553;SDS011;59;48.778;9.156;2022-10-31T18:24:39;22.40;;;15.70;;
553;SDS011;59;48.778;9.156;2022-10-31T18:27:05;26.40;;;16.20;;
553;SDS011;59;48.778;9.156;2022-10-31T18:29:32;24.90;;;16.90;;
553;SDS011;59;48.778;9.156;2022-10-31T18:31:57;24.47;;;16.10;;
553;SDS011;59;48.778;9.156;2022-10-31T18:34:23;24.10;;;15.87;;
553;SDS011;59;48.778;9.156;2022-10-31T18:36:49;23.53;;;15.30;;
553;SDS011;59;48.778;9.156;2022-10-31T18:39:14;22.23;;;14.67;;
553;SDS011;59;48.778;9.156;2022-10-31T18:41:40;25.80;;;17.30;;
553;SDS011;59;48.778;9.156;2022-10-31T18:44:07;27.30;;;17.83;;